Burnsville, NC (28714)

6:38 PM EST on February 11, 2016 (GMT -0500)
Mountain Air | | Change Station
CLOSE
Current Station
Personal Weather Station
Location: Burnsville, NC
Elevation: 4390 ft
Nearby Weather Stations

Elev 4390 ft 35.89 °N, 82.29 °W | Updated 9 minutes ago

Clear
Clear
22.2 °F
Feels Like 22 °F
N
3.0
Wind Variable Wind from SSE
Gusts 6.0 mph

Today
High -- | Low -- °F
--% Chance of Precip.
Yesterday
High -- | Low -- °F
Precip. -- in
Pressure 30.17 in
Visibility 10.0 miles
Clouds Clear
Windchill 22 °F
Dew Point 18 °F
Humidity 82%
Rainfall Not available.
Snow Depth Not available.
7:20 AM 6:06 PM
Waxing Crescent, 15% visible
METAR KAVL 112254Z 34015KT 10SM CLR 02/M08 A3013 RMK AO2 SLP217 T00171083
Pressure 30.17 in
Visibility 10.0 miles
Clouds Clear
Windchill 22 °F
Dew Point 18 °F
Humidity 82%
Rainfall Not available.
Snow Depth Not available.
7:20 AM 6:06 PM
Waxing Crescent, 15% visible
METAR KAVL 112254Z 34015KT 10SM CLR 02/M08 A3013 RMK AO2 SLP217 T00171083

10-Day Weather Forecast

Almanac

Astronomy

Feb. 11, 2016 Rise Set
Actual Time
Civil Twilight
Nautical Twilight
Astronomical Twilight
Moon
Length of Visible Light
Length of Day
Tomorrow will be .
, % of the Moon is Illuminated

Today's Extremes

State Highs State Lows

Community

WunderPhotos

Upload Photos

1,892,181 photos uploaded!

WunderBlog® & News

Nearby

Air Quality

  Air Quality AQ Index Pollutant
Not available.

Snow Depth

Station Depth Elevation

Earthquake Activity

City Distance Mag. Time & Date
Minimum magnitude displayed is 2.5.

Coastal Water Temperatures

Place Temperature

Stations

Nearby Weather Stations

Station Location Temp. Windchill Dew Point Humidity Wind Precip. Elev Updated Type
                   

Watches & Warnings

There are currently no watches in effect.